Time;durP1;ratioP1;P1;durP2;ratioP2;P2;SDS_P1;SDS_P2;PMS_P1;PMS_P2;Temp;Humidity;BMP_temperature;BMP_pressure;BME280_temperature;BME280_humidity;BME280_pressure;Samples;Min_cycle;Max_cycle;Signal;HPM_P1;HPM_P2
2023/03/27 00:00:42;;;;;;;7.22;2.25;;;;;;;;;;4917956;28;20132;-71
2023/03/27 00:03:09;;;;;;;14.10;1.70;;;;;;;;;;5000291;28;20382;-70
2023/03/27 00:05:36;;;;;;;13.57;2.17;;;;;;;;;;4897911;28;20055;-71
2023/03/27 00:08:02;;;;;;;13.30;1.70;;;;;;;;;;4917546;28;21798;-71
2023/03/27 00:10:27;;;;;;;12.00;2.35;;;;;;;;;;4917892;28;20046;-70
2023/03/27 00:12:53;;;;;;;14.00;1.60;;;;;;;;;;4917715;28;20039;-71
2023/03/27 00:15:18;;;;;;;14.80;1.88;;;;;;;;;;4918707;28;20051;-69
2023/03/27 00:17:47;;;;;;;13.13;2.00;;;;;;;;;;4919071;28;20474;-70
2023/03/27 00:20:13;;;;;;;8.98;2.55;;;;;;;;;;4918236;28;20045;-71
2023/03/27 00:22:39;;;;;;;8.85;1.58;;;;;;;;;;4920123;28;20133;-68
2023/03/27 00:25:05;;;;;;;7.90;1.42;;;;;;;;;;4919947;28;20047;-70
2023/03/27 00:27:30;;;;;;;8.07;1.40;;;;;;;;;;4912788;28;20046;-72
2023/03/27 00:29:56;;;;;;;9.88;1.40;;;;;;;;;;4918188;28;20504;-71
2023/03/27 00:32:21;;;;;;;6.10;1.50;;;;;;;;;;4919295;28;20055;-68
2023/03/27 00:34:49;;;;;;;9.73;1.20;;;;;;;;;;4921439;28;20093;-71
2023/03/27 00:37:15;;;;;;;13.07;1.50;;;;;;;;;;4918760;28;20534;-70
2023/03/27 00:39:41;;;;;;;9.52;1.75;;;;;;;;;;4917919;28;20066;-71
2023/03/27 00:42:12;;;;;;;7.57;1.50;;;;;;;;;;4917865;28;20201;-71
2023/03/27 00:44:38;;;;;;;9.20;1.50;;;;;;;;;;4916876;28;20763;-69
2023/03/27 00:47:04;;;;;;;10.60;1.77;;;;;;;;;;4920220;28;20449;-71
2023/03/27 00:49:33;;;;;;;7.18;1.40;;;;;;;;;;4920533;28;20050;-70
2023/03/27 00:52:00;;;;;;;8.18;1.55;;;;;;;;;;4920492;28;20270;-71
2023/03/27 00:54:28;;;;;;;11.15;1.40;;;;;;;;;;4922496;28;20038;-71
2023/03/27 00:56:58;;;;;;;9.20;1.90;;;;;;;;;;4922742;28;20043;-70
2023/03/27 00:59:27;;;;;;;13.50;2.35;;;;;;;;;;4919349;28;20189;-70
2023/03/27 01:01:52;;;;;;;22.45;4.82;;;;;;;;;;4921711;28;20035;-70
2023/03/27 01:04:20;;;;;;;13.13;4.68;;;;;;;;;;4920849;28;20458;-71
2023/03/27 01:06:45;;;;;;;25.33;8.35;;;;;;;;;;4924821;28;20051;-69
2023/03/27 01:09:10;;;;;;;21.88;5.78;;;;;;;;;;4922478;28;20066;-70
2023/03/27 01:11:57;;;;;;;16.55;2.63;;;;;;;;;;4922939;28;20050;-71
2023/03/27 01:14:46;;;;;;;16.92;6.03;;;;;;;;;;4920675;28;20047;-70
2023/03/27 01:17:21;;;;;;;17.80;6.20;;;;;;;;;;4915276;28;20154;-71
2023/03/27 01:19:50;;;;;;;12.00;2.33;;;;;;;;;;4915275;28;20134;-69
2023/03/27 01:22:35;;;;;;;21.75;4.05;;;;;;;;;;4918859;28;20048;-69
2023/03/27 01:25:12;;;;;;;21.25;6.40;;;;;;;;;;4903168;28;20077;-70
2023/03/27 01:28:01;;;;;;;11.88;2.60;;;;;;;;;;4916863;28;20043;-70
2023/03/27 01:30:32;;;;;;;9.52;1.70;;;;;;;;;;4920587;28;20121;-69
2023/03/27 01:33:16;;;;;;;9.95;1.45;;;;;;;;;;4935525;28;20134;-71
2023/03/27 01:35:41;;;;;;;11.18;1.50;;;;;;;;;;4919858;28;20059;-70
2023/03/27 01:38:27;;;;;;;10.95;2.08;;;;;;;;;;4949644;28;20043;-71
2023/03/27 01:41:08;;;;;;;8.63;1.23;;;;;;;;;;4921076;28;20035;-70
2023/03/27 01:43:40;;;;;;;10.63;1.50;;;;;;;;;;4949400;28;20437;-70
2023/03/27 01:46:15;;;;;;;9.48;1.55;;;;;;;;;;4920067;28;20047;-72
2023/03/27 01:48:46;;;;;;;11.20;1.27;;;;;;;;;;4920175;28;20039;-70
2023/03/27 01:51:19;;;;;;;5.88;1.55;;;;;;;;;;5002734;28;20081;-70
2023/03/27 01:53:51;;;;;;;12.02;1.75;;;;;;;;;;4921831;28;20538;-71
2023/03/27 01:56:30;;;;;;;16.08;1.40;;;;;;;;;;4921269;28;20043;-71
2023/03/27 01:59:02;;;;;;;12.35;1.60;;;;;;;;;;4917470;28;20036;-69
2023/03/27 02:01:32;;;;;;;11.65;1.80;;;;;;;;;;4918757;28;20035;-71
2023/03/27 02:04:00;;;;;;;9.65;1.55;;;;;;;;;;4918571;28;20035;-71
2023/03/27 02:06:29;;;;;;;10.05;1.60;;;;;;;;;;4920815;28;20708;-69
2023/03/27 02:09:00;;;;;;;14.73;1.80;;;;;;;;;;4917507;28;20158;-71
2023/03/27 02:11:27;;;;;;;12.82;1.90;;;;;;;;;;4918976;28;20043;-69
2023/03/27 02:13:58;;;;;;;14.90;2.28;;;;;;;;;;4918092;28;20044;-71
2023/03/27 02:16:32;;;;;;;12.88;2.08;;;;;;;;;;4920238;28;20044;-68
2023/03/27 02:19:03;;;;;;;14.27;1.95;;;;;;;;;;4918421;28;20063;-69
2023/03/27 02:21:32;;;;;;;7.97;1.17;;;;;;;;;;4920135;28;20093;-69
2023/03/27 02:24:00;;;;;;;9.30;1.20;;;;;;;;;;4920754;28;20039;-70
2023/03/27 02:26:26;;;;;;;6.57;1.23;;;;;;;;;;4920802;28;20540;-70
2023/03/27 02:29:02;;;;;;;5.57;0.93;;;;;;;;;;4917264;28;20050;-70
2023/03/27 02:31:27;;;;;;;6.07;1.38;;;;;;;;;;4920923;28;20590;-69
2023/03/27 02:34:10;;;;;;;1.67;1.13;;;;;;;;;;4950292;28;20031;-69
2023/03/27 02:36:35;;;;;;;2.63;0.82;;;;;;;;;;4920497;28;20507;-70
2023/03/27 02:39:04;;;;;;;6.60;0.90;;;;;;;;;;4921633;28;20066;-71
2023/03/27 02:41:30;;;;;;;5.22;0.82;;;;;;;;;;4918697;28;20028;-69
2023/03/27 02:44:15;;;;;;;5.95;1.00;;;;;;;;;;4920547;28;20031;-68
2023/03/27 02:47:00;;;;;;;5.00;1.00;;;;;;;;;;4920201;28;20098;-69
2023/03/27 02:49:40;;;;;;;5.40;1.27;;;;;;;;;;4916016;28;20084;-71
2023/03/27 02:52:12;;;;;;;5.00;1.40;;;;;;;;;;4919908;28;20035;-69
2023/03/27 02:54:42;;;;;;;8.00;1.30;;;;;;;;;;4947939;28;21957;-69
2023/03/27 02:57:13;;;;;;;8.00;1.23;;;;;;;;;;4920723;28;20047;-69
2023/03/27 02:59:41;;;;;;;10.18;1.17;;;;;;;;;;4919880;28;20035;-69
2023/03/27 03:02:09;;;;;;;9.43;1.33;;;;;;;;;;4931562;28;20039;-70
2023/03/27 03:04:46;;;;;;;8.27;1.20;;;;;;;;;;4921380;28;20105;-69
2023/03/27 03:07:13;;;;;;;7.70;1.77;;;;;;;;;;4920343;28;20042;-70
2023/03/27 03:09:38;;;;;;;9.05;1.48;;;;;;;;;;4918413;28;20039;-68
2023/03/27 03:12:04;;;;;;;13.38;1.52;;;;;;;;;;4918416;28;20113;-69
2023/03/27 03:14:32;;;;;;;8.43;1.20;;;;;;;;;;4920367;28;20043;-67
2023/03/27 03:17:00;;;;;;;13.60;1.45;;;;;;;;;;4951746;28;20039;-70
2023/03/27 03:19:27;;;;;;;12.00;1.63;;;;;;;;;;4916974;28;20079;-70
2023/03/27 03:21:53;;;;;;;20.73;2.10;;;;;;;;;;4919084;28;20120;-70
2023/03/27 03:24:21;;;;;;;12.40;2.13;;;;;;;;;;4913868;28;21917;-72
2023/03/27 03:26:48;;;;;;;15.23;2.67;;;;;;;;;;4929299;28;20093;-69
2023/03/27 03:29:14;;;;;;;13.65;2.13;;;;;;;;;;4917504;28;20850;-69
2023/03/27 03:31:42;;;;;;;11.02;1.88;;;;;;;;;;4915229;28;20154;-71
2023/03/27 03:34:10;;;;;;;12.68;2.13;;;;;;;;;;4933685;28;20050;-71
2023/03/27 03:36:35;;;;;;;15.55;2.25;;;;;;;;;;4918137;28;20114;-69
2023/03/27 03:39:00;;;;;;;9.70;1.77;;;;;;;;;;4920306;28;20039;-69
2023/03/27 03:41:26;;;;;;;12.07;2.25;;;;;;;;;;4917011;28;20044;-70
2023/03/27 03:43:51;;;;;;;11.15;2.10;;;;;;;;;;4932164;28;20093;-71
2023/03/27 03:46:16;;;;;;;13.43;2.33;;;;;;;;;;4922658;28;20511;-69
2023/03/27 03:48:41;;;;;;;14.40;1.77;;;;;;;;;;4918916;28;20044;-70
2023/03/27 03:51:07;;;;;;;10.38;2.15;;;;;;;;;;4919045;28;20137;-70
2023/03/27 03:53:32;;;;;;;24.02;2.70;;;;;;;;;;4916158;28;20040;-71
2023/03/27 03:56:00;;;;;;;12.32;2.15;;;;;;;;;;4964433;28;20074;-70
2023/03/27 03:58:25;;;;;;;11.77;2.00;;;;;;;;;;4902117;28;20035;-69
2023/03/27 04:00:53;;;;;;;19.27;2.95;;;;;;;;;;4923791;28;20043;-68
2023/03/27 04:03:19;;;;;;;9.77;1.30;;;;;;;;;;4912289;28;20045;-69
2023/03/27 04:05:47;;;;;;;6.60;1.35;;;;;;;;;;4919834;28;20076;-69
2023/03/27 04:08:12;;;;;;;11.88;2.00;;;;;;;;;;4920139;28;20039;-70
2023/03/27 04:10:40;;;;;;;12.88;1.50;;;;;;;;;;4920628;28;20040;-71
2023/03/27 04:13:05;;;;;;;8.35;1.58;;;;;;;;;;4918089;28;20123;-69
2023/03/27 04:15:31;;;;;;;9.25;1.50;;;;;;;;;;4919084;28;20564;-71
2023/03/27 04:17:56;;;;;;;12.13;1.83;;;;;;;;;;4921161;28;20048;-72
2023/03/27 04:20:25;;;;;;;8.00;1.58;;;;;;;;;;4919914;28;20416;-70
2023/03/27 04:22:53;;;;;;;14.27;2.20;;;;;;;;;;4921315;28;20488;-71
2023/03/27 04:25:22;;;;;;;9.05;1.65;;;;;;;;;;4922762;28;20475;-70
2023/03/27 04:27:53;;;;;;;9.90;2.13;;;;;;;;;;4919562;28;20100;-69
2023/03/27 04:30:22;;;;;;;12.73;2.88;;;;;;;;;;4921687;28;20054;-69
2023/03/27 04:32:48;;;;;;;17.38;2.70;;;;;;;;;;4922574;28;20472;-70
2023/03/27 04:35:14;;;;;;;16.05;3.40;;;;;;;;;;4919353;28;20047;-71
2023/03/27 04:37:43;;;;;;;15.10;3.15;;;;;;;;;;4923044;28;20364;-69
2023/03/27 04:40:17;;;;;;;13.70;2.42;;;;;;;;;;4921625;28;20043;-69
2023/03/27 04:42:43;;;;;;;11.90;2.42;;;;;;;;;;4922853;28;21923;-69
2023/03/27 04:45:24;;;;;;;11.27;2.40;;;;;;;;;;4921674;28;20047;-69
2023/03/27 04:47:49;;;;;;;13.02;2.45;;;;;;;;;;4922290;28;20730;-68
2023/03/27 04:50:18;;;;;;;13.15;2.40;;;;;;;;;;4921718;28;20392;-68
2023/03/27 04:52:43;;;;;;;16.90;2.70;;;;;;;;;;4922665;28;20367;-69
2023/03/27 04:55:10;;;;;;;18.85;2.95;;;;;;;;;;4922160;28;20711;-70
2023/03/27 04:57:36;;;;;;;12.45;1.90;;;;;;;;;;4922861;28;20107;-69
2023/03/27 05:00:12;;;;;;;15.82;2.50;;;;;;;;;;4921320;28;20056;-70
2023/03/27 05:02:40;;;;;;;14.63;2.22;;;;;;;;;;4921900;28;20035;-72
2023/03/27 05:05:06;;;;;;;23.27;2.53;;;;;;;;;;4917923;28;20128;-69
2023/03/27 05:07:31;;;;;;;16.70;2.45;;;;;;;;;;4917732;28;20540;-69
2023/03/27 05:09:56;;;;;;;11.82;2.28;;;;;;;;;;4952620;28;20055;-69
2023/03/27 05:12:22;;;;;;;14.00;2.13;;;;;;;;;;4922480;28;20046;-71
2023/03/27 05:14:47;;;;;;;17.17;2.03;;;;;;;;;;4922588;28;20054;-71
2023/03/27 05:17:14;;;;;;;12.70;1.60;;;;;;;;;;4917767;28;20074;-70
2023/03/27 05:19:39;;;;;;;13.45;1.50;;;;;;;;;;4922135;28;20043;-71
2023/03/27 05:22:05;;;;;;;11.02;1.50;;;;;;;;;;4922333;28;20046;-71
2023/03/27 05:24:32;;;;;;;18.02;2.00;;;;;;;;;;4920779;28;20047;-71
2023/03/27 05:26:59;;;;;;;11.68;1.73;;;;;;;;;;4919362;28;20142;-70
2023/03/27 05:29:28;;;;;;;12.35;1.42;;;;;;;;;;4920897;28;20031;-70
2023/03/27 05:31:53;;;;;;;7.13;1.25;;;;;;;;;;4920679;28;20061;-70
2023/03/27 05:34:19;;;;;;;8.73;1.50;;;;;;;;;;4917428;28;20031;-69
2023/03/27 05:36:45;;;;;;;9.43;1.85;;;;;;;;;;4919115;28;20435;-71
2023/03/27 05:39:11;;;;;;;5.97;1.17;;;;;;;;;;4920016;28;20039;-70
2023/03/27 05:41:37;;;;;;;6.80;1.20;;;;;;;;;;4923392;28;20640;-69
2023/03/27 05:44:04;;;;;;;9.75;1.48;;;;;;;;;;4917246;28;20043;-70
2023/03/27 05:46:30;;;;;;;9.20;1.20;;;;;;;;;;4919928;28;20043;-70
2023/03/27 05:48:58;;;;;;;15.57;2.65;;;;;;;;;;4915848;28;21431;-72
2023/03/27 05:51:26;;;;;;;10.45;1.33;;;;;;;;;;4918920;28;20035;-71
2023/03/27 05:53:51;;;;;;;16.50;2.22;;;;;;;;;;4918769;28;20303;-67
2023/03/27 05:56:17;;;;;;;7.82;1.60;;;;;;;;;;4921370;28;20842;-71
2023/03/27 05:58:42;;;;;;;10.07;1.40;;;;;;;;;;4920201;28;20467;-71
2023/03/27 06:01:09;;;;;;;6.35;1.08;;;;;;;;;;4917259;28;20096;-71
2023/03/27 06:03:37;;;;;;;9.77;1.17;;;;;;;;;;4915236;28;20039;-71
2023/03/27 06:06:07;;;;;;;8.15;1.73;;;;;;;;;;4916468;28;20055;-70
2023/03/27 06:08:33;;;;;;;9.80;1.67;;;;;;;;;;4955371;28;20051;-71
2023/03/27 06:10:58;;;;;;;10.18;1.38;;;;;;;;;;4919216;28;20187;-72
2023/03/27 06:13:24;;;;;;;13.65;1.85;;;;;;;;;;4948358;28;20035;-71
2023/03/27 06:15:52;;;;;;;15.18;1.83;;;;;;;;;;4904905;28;20349;-69
2023/03/27 06:18:18;;;;;;;12.07;1.67;;;;;;;;;;4919617;28;20082;-69
2023/03/27 06:20:43;;;;;;;10.88;1.20;;;;;;;;;;4919491;28;20118;-69
2023/03/27 06:23:11;;;;;;;7.68;1.27;;;;;;;;;;4919376;28;20039;-71
2023/03/27 06:25:37;;;;;;;10.23;1.40;;;;;;;;;;4918002;28;20051;-68
2023/03/27 06:28:05;;;;;;;13.32;2.28;;;;;;;;;;4949774;28;20230;-71
2023/03/27 06:30:31;;;;;;;18.45;1.83;;;;;;;;;;4916540;28;20077;-69
2023/03/27 06:32:57;;;;;;;9.50;1.42;;;;;;;;;;4920449;28;20749;-72
2023/03/27 06:35:25;;;;;;;11.48;1.67;;;;;;;;;;4918221;28;20483;-69
2023/03/27 06:37:54;;;;;;;11.57;2.03;;;;;;;;;;4919224;28;20546;-71
2023/03/27 06:40:21;;;;;;;8.77;1.85;;;;;;;;;;4918667;28;20039;-68
2023/03/27 06:42:49;;;;;;;20.08;2.50;;;;;;;;;;4935508;28;20722;-69
2023/03/27 06:45:17;;;;;;;17.83;2.60;;;;;;;;;;4945922;28;20090;-70
2023/03/27 06:47:49;;;;;;;16.02;2.78;;;;;;;;;;4918549;28;20504;-71
2023/03/27 06:50:14;;;;;;;14.23;2.38;;;;;;;;;;4918660;28;20048;-71
2023/03/27 06:52:40;;;;;;;18.27;3.08;;;;;;;;;;4921830;28;20043;-71
2023/03/27 06:55:06;;;;;;;15.55;2.17;;;;;;;;;;4917170;28;20520;-70
2023/03/27 06:57:31;;;;;;;14.00;1.98;;;;;;;;;;4918984;28;20484;-70
2023/03/27 06:59:57;;;;;;;11.95;2.20;;;;;;;;;;4918656;28;20043;-69
2023/03/27 07:02:22;;;;;;;15.85;2.30;;;;;;;;;;4920444;28;20142;-68
2023/03/27 07:04:47;;;;;;;17.90;2.30;;;;;;;;;;4915044;28;20051;-69
2023/03/27 07:07:13;;;;;;;13.82;1.85;;;;;;;;;;4921383;28;20039;-71
2023/03/27 07:09:38;;;;;;;12.82;1.60;;;;;;;;;;4918319;28;21968;-68
2023/03/27 07:12:03;;;;;;;11.82;1.92;;;;;;;;;;4919489;28;20047;-70
2023/03/27 07:14:28;;;;;;;15.00;2.47;;;;;;;;;;4918067;28;20516;-70
2023/03/27 07:16:54;;;;;;;15.40;2.15;;;;;;;;;;4935282;28;20138;-69
2023/03/27 07:19:19;;;;;;;14.82;1.92;;;;;;;;;;4917198;28;20043;-68
2023/03/27 07:21:44;;;;;;;11.40;1.58;;;;;;;;;;4917355;28;20039;-70
2023/03/27 07:24:10;;;;;;;9.75;2.03;;;;;;;;;;4917878;28;20715;-70
2023/03/27 07:26:36;;;;;;;11.38;1.52;;;;;;;;;;4917356;28;20046;-70
2023/03/27 07:29:02;;;;;;;5.93;1.05;;;;;;;;;;4917983;28;20039;-70
2023/03/27 07:31:27;;;;;;;7.97;1.20;;;;;;;;;;4922749;28;20263;-71
2023/03/27 07:33:53;;;;;;;9.80;1.42;;;;;;;;;;4917548;28;20423;-70
2023/03/27 07:36:18;;;;;;;8.60;1.55;;;;;;;;;;4919066;28;20046;-69
2023/03/27 07:38:46;;;;;;;10.45;1.55;;;;;;;;;;4915761;28;20268;-70
2023/03/27 07:41:12;;;;;;;12.20;1.77;;;;;;;;;;4915106;28;20050;-70
2023/03/27 07:43:37;;;;;;;10.77;1.65;;;;;;;;;;4918027;28;20268;-66
2023/03/27 07:46:04;;;;;;;11.80;1.98;;;;;;;;;;4914872;28;20063;-64
2023/03/27 07:48:34;;;;;;;12.35;1.95;;;;;;;;;;4917855;28;20050;-64
2023/03/27 07:51:00;;;;;;;16.52;2.03;;;;;;;;;;4920451;28;20045;-65
2023/03/27 07:53:26;;;;;;;10.60;1.80;;;;;;;;;;4913697;28;20050;-65
2023/03/27 07:55:52;;;;;;;16.80;2.90;;;;;;;;;;4917855;28;20331;-65
2023/03/27 07:58:20;;;;;;;10.48;2.35;;;;;;;;;;4917592;28;20047;-63
2023/03/27 08:00:50;;;;;;;14.75;1.67;;;;;;;;;;4919567;28;22073;-68
2023/03/27 08:03:16;;;;;;;14.20;1.85;;;;;;;;;;4915885;28;20043;-65
2023/03/27 08:05:42;;;;;;;10.70;2.08;;;;;;;;;;4916434;28;20137;-65
2023/03/27 08:08:08;;;;;;;12.70;1.80;;;;;;;;;;4916542;28;20039;-65
2023/03/27 08:10:36;;;;;;;9.07;1.77;;;;;;;;;;4918563;28;20043;-66
2023/03/27 08:13:02;;;;;;;12.18;2.00;;;;;;;;;;4917355;28;20114;-65
2023/03/27 08:15:27;;;;;;;16.63;2.40;;;;;;;;;;4917316;28;20041;-65
2023/03/27 08:17:53;;;;;;;8.30;1.80;;;;;;;;;;4914297;28;21899;-66
2023/03/27 08:20:19;;;;;;;13.68;1.75;;;;;;;;;;4915939;28;20061;-63
2023/03/27 08:22:44;;;;;;;9.50;1.73;;;;;;;;;;4916161;28;20280;-64
2023/03/27 08:25:12;;;;;;;13.98;2.42;;;;;;;;;;4915803;28;20043;-64
2023/03/27 08:27:38;;;;;;;12.85;1.63;;;;;;;;;;4909834;28;20464;-64
2023/03/27 08:30:03;;;;;;;14.38;2.33;;;;;;;;;;4917512;28;20059;-65
2023/03/27 08:32:28;;;;;;;11.88;2.22;;;;;;;;;;4930366;28;20230;-66
2023/03/27 08:34:54;;;;;;;15.27;1.88;;;;;;;;;;4917783;28;21014;-64
2023/03/27 08:37:19;;;;;;;11.23;1.45;;;;;;;;;;4932831;28;20281;-65
2023/03/27 08:39:45;;;;;;;12.88;2.13;;;;;;;;;;4915537;28;20055;-64
2023/03/27 08:42:18;;;;;;;15.50;1.92;;;;;;;;;;4917405;28;20189;-64
2023/03/27 08:44:44;;;;;;;6.70;1.45;;;;;;;;;;4911248;28;20138;-65
2023/03/27 08:47:09;;;;;;;4.28;1.20;;;;;;;;;;4995948;28;20050;-64
2023/03/27 08:49:36;;;;;;;8.07;1.13;;;;;;;;;;4911013;28;20488;-65
2023/03/27 08:52:05;;;;;;;8.95;1.67;;;;;;;;;;4945975;28;20048;-64
2023/03/27 08:54:32;;;;;;;11.15;1.88;;;;;;;;;;4914441;28;20043;-63
2023/03/27 08:56:58;;;;;;;9.48;1.25;;;;;;;;;;4916088;28;20421;-64
2023/03/27 08:59:25;;;;;;;7.80;1.60;;;;;;;;;;4916514;28;20491;-65
2023/03/27 09:02:07;;;;;;;8.68;1.50;;;;;;;;;;4912628;28;21821;-65
2023/03/27 09:04:36;;;;;;;14.77;2.72;;;;;;;;;;4946494;28;20477;-64
2023/03/27 09:07:05;;;;;;;15.93;1.92;;;;;;;;;;4941696;28;20442;-65
2023/03/27 09:09:36;;;;;;;14.57;2.70;;;;;;;;;;4915018;28;20071;-64
2023/03/27 09:12:20;;;;;;;14.75;2.58;;;;;;;;;;4918075;28;20043;-64
2023/03/27 09:14:50;;;;;;;11.75;2.30;;;;;;;;;;4920400;28;20047;-64
2023/03/27 09:17:31;;;;;;;13.82;2.47;;;;;;;;;;4949447;28;20041;-65
2023/03/27 09:20:05;;;;;;;13.90;2.13;;;;;;;;;;4914926;28;20404;-65
2023/03/27 09:22:39;;;;;;;14.38;2.33;;;;;;;;;;4920484;28;20089;-65
2023/03/27 09:25:13;;;;;;;16.13;2.50;;;;;;;;;;4919137;28;20055;-65
2023/03/27 09:27:39;;;;;;;15.45;2.40;;;;;;;;;;4921041;28;21073;-64
2023/03/27 09:30:10;;;;;;;13.13;2.40;;;;;;;;;;4921915;28;20079;-65
2023/03/27 09:32:36;;;;;;;20.50;2.55;;;;;;;;;;4923578;28;20039;-64
2023/03/27 09:35:03;;;;;;;19.58;2.38;;;;;;;;;;4920768;28;20429;-64
2023/03/27 09:37:28;;;;;;;14.40;2.38;;;;;;;;;;4919998;28;20039;-65
2023/03/27 09:39:55;;;;;;;15.63;2.45;;;;;;;;;;4919458;28;20050;-64
2023/03/27 09:42:32;;;;;;;13.93;1.77;;;;;;;;;;4999614;28;20403;-65
2023/03/27 09:45:02;;;;;;;16.58;2.33;;;;;;;;;;4920326;28;20375;-65
2023/03/27 09:47:33;;;;;;;15.02;2.05;;;;;;;;;;4917412;28;20050;-63
2023/03/27 09:50:07;;;;;;;20.33;2.80;;;;;;;;;;4921672;28;20101;-64
2023/03/27 09:52:34;;;;;;;15.85;2.05;;;;;;;;;;4915990;28;20720;-65
2023/03/27 09:55:01;;;;;;;14.35;2.30;;;;;;;;;;4920071;28;20054;-65
2023/03/27 09:57:32;;;;;;;13.80;2.20;;;;;;;;;;4921110;28;20504;-63
2023/03/27 10:00:23;;;;;;;14.60;2.13;;;;;;;;;;4917860;28;20842;-64
2023/03/27 10:03:00;;;;;;;17.52;1.92;;;;;;;;;;4917395;28;20047;-64
2023/03/27 10:05:25;;;;;;;15.38;2.33;;;;;;;;;;4920582;28;20055;-64
2023/03/27 10:07:51;;;;;;;19.55;2.40;;;;;;;;;;4918393;28;20573;-65
2023/03/27 10:10:18;;;;;;;12.32;2.08;;;;;;;;;;4923573;28;20039;-65
2023/03/27 10:12:45;;;;;;;14.50;1.98;;;;;;;;;;4914832;28;20078;-65
2023/03/27 10:15:30;;;;;;;21.88;2.17;;;;;;;;;;4919841;28;20143;-64
2023/03/27 10:17:58;;;;;;;19.52;2.50;;;;;;;;;;4918786;28;20081;-63
2023/03/27 10:20:26;;;;;;;21.63;2.63;;;;;;;;;;4920729;28;20147;-65
2023/03/27 10:23:05;;;;;;;21.25;2.97;;;;;;;;;;4919600;28;20039;-63
2023/03/27 10:25:33;;;;;;;17.23;1.90;;;;;;;;;;4919231;28;20062;-66
2023/03/27 10:28:13;;;;;;;17.77;2.47;;;;;;;;;;4918855;28;20036;-66
2023/03/27 10:30:39;;;;;;;16.65;2.22;;;;;;;;;;4918960;28;20476;-65
2023/03/27 10:33:07;;;;;;;14.18;2.50;;;;;;;;;;4916735;28;20919;-63
2023/03/27 10:35:36;;;;;;;18.98;2.42;;;;;;;;;;4943292;28;20139;-66
2023/03/27 10:38:15;;;;;;;14.98;1.98;;;;;;;;;;4920453;28;20493;-64
2023/03/27 10:40:41;;;;;;;17.70;2.17;;;;;;;;;;4918009;28;20046;-65
2023/03/27 10:43:11;;;;;;;14.70;2.60;;;;;;;;;;4921173;28;20041;-65
2023/03/27 10:45:45;;;;;;;14.00;2.67;;;;;;;;;;4918175;28;20078;-63
2023/03/27 10:48:13;;;;;;;19.58;2.58;;;;;;;;;;4917775;28;20075;-64
2023/03/27 10:50:44;;;;;;;14.63;2.47;;;;;;;;;;4920484;28;20046;-64
2023/03/27 10:53:31;;;;;;;20.50;2.65;;;;;;;;;;4999464;28;20554;-64
2023/03/27 10:55:57;;;;;;;18.25;2.33;;;;;;;;;;4917607;28;20122;-64
2023/03/27 10:58:22;;;;;;;25.08;3.08;;;;;;;;;;4930797;28;20081;-63
2023/03/27 11:00:52;;;;;;;26.50;3.13;;;;;;;;;;4917081;28;20059;-64
2023/03/27 11:03:30;;;;;;;16.92;2.78;;;;;;;;;;4919763;28;20042;-64
2023/03/27 11:05:57;;;;;;;28.30;3.92;;;;;;;;;;4915595;28;20053;-66
2023/03/27 11:08:28;;;;;;;22.23;3.28;;;;;;;;;;4911287;28;20052;-65
2023/03/27 11:10:56;;;;;;;21.27;2.97;;;;;;;;;;4916519;28;20554;-63
2023/03/27 11:13:26;;;;;;;17.85;2.45;;;;;;;;;;4917904;28;20634;-64
2023/03/27 11:16:14;;;;;;;13.90;2.10;;;;;;;;;;4917111;28;20185;-66
2023/03/27 11:18:48;;;;;;;10.02;1.80;;;;;;;;;;4917458;28;21416;-64
2023/03/27 11:21:16;;;;;;;14.02;1.75;;;;;;;;;;4919219;28;20054;-63
2023/03/27 11:23:58;;;;;;;13.45;2.15;;;;;;;;;;4918352;28;20081;-65
2023/03/27 11:26:47;;;;;;;16.23;1.77;;;;;;;;;;4919190;28;20562;-64
2023/03/27 11:29:16;;;;;;;18.58;2.17;;;;;;;;;;4934881;28;20046;-66
2023/03/27 11:31:44;;;;;;;18.95;2.42;;;;;;;;;;4918211;28;20036;-65
2023/03/27 11:34:31;;;;;;;18.05;3.10;;;;;;;;;;4918969;28;20112;-64
2023/03/27 11:36:59;;;;;;;18.95;2.85;;;;;;;;;;4928885;28;20070;-65
2023/03/27 11:39:34;;;;;;;22.92;2.92;;;;;;;;;;4914205;28;20123;-65
2023/03/27 11:42:01;;;;;;;21.55;2.58;;;;;;;;;;4919222;28;20040;-64
2023/03/27 11:44:29;;;;;;;16.05;2.40;;;;;;;;;;4914686;28;20203;-64
2023/03/27 11:47:07;;;;;;;12.80;2.45;;;;;;;;;;4916863;28;20101;-65
2023/03/27 11:49:40;;;;;;;15.35;2.00;;;;;;;;;;4914723;28;20194;-64
2023/03/27 11:52:19;;;;;;;12.38;1.65;;;;;;;;;;4917187;28;20126;-65
2023/03/27 11:54:58;;;;;;;12.50;2.25;;;;;;;;;;4916085;28;20190;-65
2023/03/27 11:57:24;;;;;;;10.70;2.10;;;;;;;;;;4916441;28;20031;-64
2023/03/27 11:59:55;;;;;;;13.18;2.53;;;;;;;;;;4918827;28;20039;-64
2023/03/27 12:02:27;;;;;;;11.03;2.23;;;;;;;;;;4918585;28;20949;-66
2023/03/27 12:04:55;;;;;;;12.55;2.05;;;;;;;;;;4916292;28;20309;-63
2023/03/27 12:07:36;;;;;;;10.40;1.73;;;;;;;;;;4919739;28;20165;-64
2023/03/27 12:10:18;;;;;;;14.52;2.53;;;;;;;;;;4914020;28;20392;-65
2023/03/27 12:12:44;;;;;;;8.50;1.80;;;;;;;;;;4918083;28;20044;-64
2023/03/27 12:15:28;;;;;;;13.43;2.53;;;;;;;;;;4918985;28;20064;-64
2023/03/27 12:17:53;;;;;;;17.42;2.35;;;;;;;;;;4918678;28;20085;-64
2023/03/27 12:20:27;;;;;;;10.00;1.95;;;;;;;;;;4918503;28;20048;-64
2023/03/27 12:23:11;;;;;;;17.75;2.35;;;;;;;;;;4924813;28;20408;-65
2023/03/27 12:25:46;;;;;;;15.50;3.15;;;;;;;;;;4918280;28;20649;-64
2023/03/27 12:28:27;;;;;;;12.25;1.80;;;;;;;;;;4917388;28;20034;-65
2023/03/27 12:31:04;;;;;;;14.80;1.98;;;;;;;;;;4916200;28;20085;-65
2023/03/27 12:33:40;;;;;;;10.63;1.65;;;;;;;;;;4945476;28;20062;-64
2023/03/27 12:36:10;;;;;;;19.98;3.00;;;;;;;;;;4915852;28;20039;-65
2023/03/27 12:38:37;;;;;;;17.27;2.63;;;;;;;;;;4918506;28;21935;-65
2023/03/27 12:41:05;;;;;;;14.93;2.30;;;;;;;;;;4917037;28;20043;-65
2023/03/27 12:43:38;;;;;;;17.25;2.30;;;;;;;;;;4950926;28;20050;-66
2023/03/27 12:46:10;;;;;;;19.92;2.50;;;;;;;;;;4922547;28;20420;-71
2023/03/27 12:48:46;;;;;;;16.05;2.15;;;;;;;;;;4914141;28;20054;-70
2023/03/27 12:51:13;;;;;;;20.30;2.20;;;;;;;;;;4917323;28;20178;-71
2023/03/27 12:53:39;;;;;;;26.02;2.42;;;;;;;;;;4920149;28;20051;-70
2023/03/27 12:56:11;;;;;;;19.38;2.30;;;;;;;;;;4947508;28;20070;-72
2023/03/27 12:58:37;;;;;;;29.60;3.22;;;;;;;;;;4922353;28;20047;-70
2023/03/27 13:01:08;;;;;;;20.98;2.60;;;;;;;;;;4923573;28;20051;-69
2023/03/27 13:03:36;;;;;;;13.98;2.35;;;;;;;;;;4923048;28;20492;-69
2023/03/27 13:06:05;;;;;;;14.98;2.35;;;;;;;;;;4926164;28;20770;-70
2023/03/27 13:08:41;;;;;;;13.02;1.70;;;;;;;;;;4920145;28;20507;-70
2023/03/27 13:11:19;;;;;;;19.05;1.98;;;;;;;;;;4920693;28;21881;-71
2023/03/27 13:13:48;;;;;;;13.68;1.95;;;;;;;;;;4921902;28;20100;-72
2023/03/27 13:16:29;;;;;;;14.43;1.92;;;;;;;;;;4919589;28;20093;-71
2023/03/27 13:19:13;;;;;;;20.50;2.58;;;;;;;;;;4920663;28;20041;-68
2023/03/27 13:21:48;;;;;;;14.80;1.88;;;;;;;;;;4921056;28;20050;-70
2023/03/27 13:24:14;;;;;;;12.40;2.67;;;;;;;;;;4921514;28;20070;-71
2023/03/27 13:26:58;;;;;;;15.60;2.00;;;;;;;;;;4922748;28;20077;-72
2023/03/27 13:29:25;;;;;;;13.95;1.80;;;;;;;;;;4912201;28;20123;-71
2023/03/27 13:31:50;;;;;;;22.63;2.65;;;;;;;;;;4921005;28;20046;-70
2023/03/27 13:34:24;;;;;;;20.42;2.60;;;;;;;;;;4920455;28;20035;-70
2023/03/27 13:36:50;;;;;;;20.88;3.00;;;;;;;;;;4915371;28;20169;-71
2023/03/27 13:39:21;;;;;;;22.50;2.45;;;;;;;;;;4930307;28;20035;-72
2023/03/27 13:41:48;;;;;;;21.52;1.83;;;;;;;;;;4919456;28;20234;-71
2023/03/27 13:44:20;;;;;;;18.10;2.20;;;;;;;;;;4918725;28;20047;-70
2023/03/27 13:46:49;;;;;;;15.63;2.05;;;;;;;;;;4917592;28;20096;-70
2023/03/27 13:49:19;;;;;;;15.82;1.75;;;;;;;;;;4914073;28;20044;-71
2023/03/27 13:51:45;;;;;;;20.95;2.70;;;;;;;;;;4915506;28;20831;-71
2023/03/27 13:54:29;;;;;;;18.40;2.33;;;;;;;;;;4919274;28;20043;-71
2023/03/27 13:57:04;;;;;;;23.90;2.35;;;;;;;;;;4917260;28;20046;-71
2023/03/27 13:59:41;;;;;;;18.48;2.47;;;;;;;;;;4917912;28;20044;-70
2023/03/27 14:02:10;;;;;;;10.35;2.30;;;;;;;;;;4919136;28;20506;-71
2023/03/27 14:04:56;;;;;;;15.10;2.13;;;;;;;;;;4918225;28;20032;-70
2023/03/27 14:07:40;;;;;;;19.25;2.80;;;;;;;;;;4920975;28;20220;-70
2023/03/27 14:10:15;;;;;;;17.35;2.70;;;;;;;;;;4917374;28;20122;-70
2023/03/27 14:12:59;;;;;;;23.67;2.75;;;;;;;;;;4949994;28;20550;-72
2023/03/27 14:15:35;;;;;;;18.20;2.00;;;;;;;;;;4916926;28;20036;-70
2023/03/27 14:18:18;;;;;;;20.88;2.60;;;;;;;;;;4919749;28;20039;-71
2023/03/27 14:20:54;;;;;;;23.40;2.33;;;;;;;;;;4917960;28;20054;-71
2023/03/27 14:23:42;;;;;;;16.98;2.33;;;;;;;;;;4918709;28;20795;-72
2023/03/27 14:26:19;;;;;;;17.02;2.50;;;;;;;;;;4920287;28;20510;-68
2023/03/27 14:28:45;;;;;;;12.85;2.17;;;;;;;;;;4917871;28;20484;-71
2023/03/27 14:31:13;;;;;;;20.15;2.17;;;;;;;;;;4922226;28;20054;-70
2023/03/27 14:33:47;;;;;;;21.33;2.28;;;;;;;;;;4918826;28;21086;-72
2023/03/27 14:36:15;;;;;;;17.92;2.55;;;;;;;;;;4916217;28;20606;-71
2023/03/27 14:38:41;;;;;;;24.42;3.10;;;;;;;;;;4948113;28;20223;-72
2023/03/27 14:41:16;;;;;;;16.60;2.08;;;;;;;;;;4906155;28;20024;-71
2023/03/27 14:43:51;;;;;;;15.80;2.03;;;;;;;;;;4919179;28;20043;-71
2023/03/27 14:46:18;;;;;;;11.73;2.03;;;;;;;;;;4914000;28;20043;-71
2023/03/27 14:48:44;;;;;;;18.58;2.33;;;;;;;;;;4917844;28;21210;-70